createdAt,value
2018-02-23T00:01:56.066Z,94703.11
2018-02-23T00:04:59.341Z,94703.41
2018-02-23T00:08:03.380Z,94704.19
2018-02-23T00:11:06.673Z,94706.78
2018-02-23T00:14:10.081Z,94706.16
2018-02-23T00:17:13.346Z,94712.61
2018-02-23T00:20:17.414Z,94709.47
2018-02-23T00:23:20.690Z,94705.37
2018-02-23T00:26:25.826Z,94698.09
2018-02-23T00:29:29.301Z,94697.85
2018-02-23T00:32:33.331Z,94693.66
2018-02-23T00:35:37.360Z,94685.38
2018-02-23T00:38:40.637Z,94696.45
2018-02-23T00:41:44.674Z,94696.39
2018-02-23T00:44:47.949Z,94688.91
2018-02-23T00:47:52.086Z,94693.83
2018-02-23T00:50:56.720Z,94702.98
2018-02-23T00:54:00.014Z,94701.17
2018-02-23T00:57:04.049Z,94703.83
2018-02-23T01:00:35.040Z,94698.81
2018-02-23T01:03:39.907Z,94700.08
2018-02-23T01:06:43.938Z,94699.51
2018-02-23T01:09:47.233Z,94693.86
2018-02-23T01:12:50.497Z,94693.20
2018-02-23T01:15:53.760Z,94692.51
2018-02-23T01:18:57.114Z,94692.56
2018-02-23T01:22:00.410Z,94689.30
2018-02-23T01:25:04.478Z,94682.84
2018-02-23T01:28:07.755Z,94686.44
2018-02-23T01:31:11.131Z,94676.72
2018-02-23T01:34:14.436Z,94674.25
2018-02-23T01:37:18.553Z,94673.39
2018-02-23T01:40:21.836Z,94678.89
2018-02-23T01:43:27.207Z,94675.72
2018-02-23T01:46:30.493Z,94677.81
2018-02-23T01:49:33.868Z,94679.61
2018-02-23T01:52:38.017Z,94680.19
2018-02-23T01:55:41.281Z,94679.28
2018-02-23T01:58:45.326Z,94676.08
2018-02-23T02:01:48.700Z,94666.07
2018-02-23T02:04:52.847Z,94664.95
2018-02-23T02:07:56.184Z,94664.02
2018-02-23T02:10:59.462Z,94658.65
2018-02-23T02:14:02.750Z,94655.75
2018-02-23T02:17:06.019Z,94664.84
2018-02-23T02:20:10.066Z,94653.22
2018-02-23T02:23:13.339Z,94653.13
2018-02-23T02:26:16.621Z,94655.93
2018-02-23T02:29:20.747Z,94648.08
2018-02-23T02:32:24.806Z,94652.55
2018-02-23T02:35:28.585Z,94652.77
2018-02-23T02:38:31.966Z,94647.27
2018-02-23T02:41:36.005Z,94648.48
2018-02-23T02:44:39.294Z,94647.97
2018-02-23T02:47:42.562Z,94646.00
2018-02-23T02:50:46.717Z,94646.21
2018-02-23T02:53:49.998Z,94641.02
2018-02-23T02:56:53.283Z,94641.63
2018-02-23T02:59:57.568Z,94635.13
2018-02-23T03:03:01.029Z,94637.03
2018-02-23T03:06:04.303Z,94640.84
2018-02-23T03:09:08.350Z,94638.16
2018-02-23T03:12:11.629Z,94628.05
2018-02-23T03:15:15.690Z,94633.75
2018-02-23T03:18:18.974Z,94628.45
2018-02-23T03:21:22.268Z,94625.55
2018-02-23T03:24:25.547Z,94626.91
2018-02-23T03:27:30.106Z,94618.25
2018-02-23T03:30:33.398Z,94622.66
2018-02-23T03:33:36.673Z,94623.26
2018-02-23T03:36:42.598Z,94623.58
2018-02-23T03:39:46.648Z,94618.64
2018-02-23T03:42:49.950Z,94617.55
2018-02-23T03:45:53.226Z,94618.28
2018-02-23T03:48:57.266Z,94618.94
2018-02-23T03:52:01.696Z,94620.54
2018-02-23T03:55:05.067Z,94622.50
2018-02-23T03:58:09.922Z,94619.78
2018-02-23T04:01:13.202Z,94616.05
2018-02-23T04:04:17.319Z,94618.64
2018-02-23T04:07:21.435Z,94616.77
2018-02-23T04:10:25.474Z,94622.53
2018-02-23T04:13:28.758Z,94619.61
2018-02-23T04:16:32.034Z,94620.42
2018-02-23T04:19:36.074Z,94620.52
2018-02-23T04:22:39.366Z,94619.09
2018-02-23T04:25:42.674Z,94620.72
2018-02-23T04:28:45.946Z,94619.30
2018-02-23T04:31:49.990Z,94613.72
2018-02-23T04:34:53.286Z,94620.99
2018-02-23T04:37:56.555Z,94618.40
2018-02-23T04:41:00.594Z,94614.78
2018-02-23T04:44:03.870Z,94617.82
2018-02-23T04:47:07.927Z,94611.70
2018-02-23T04:50:11.218Z,94609.65
2018-02-23T04:53:14.521Z,94613.41
2018-02-23T04:56:17.823Z,94620.87
2018-02-23T04:59:21.085Z,94624.34
2018-02-23T05:02:24.397Z,94620.87
2018-02-23T05:05:28.420Z,94624.67
2018-02-23T05:08:31.698Z,94622.56
2018-02-23T05:11:35.011Z,94635.85
2018-02-23T05:14:38.299Z,94628.64
2018-02-23T05:17:41.585Z,94628.83
2018-02-23T05:20:44.881Z,94627.92
2018-02-23T05:23:48.199Z,94627.29
2018-02-23T05:26:51.473Z,94632.02
2018-02-23T05:29:55.517Z,94632.14
2018-02-23T05:33:06.936Z,94626.83
2018-02-23T05:36:10.215Z,94630.48
2018-02-23T05:39:13.633Z,94625.09
2018-02-23T05:42:17.080Z,94630.60
2018-02-23T05:45:20.652Z,94623.21
2018-02-23T05:48:23.926Z,94620.43
2018-02-23T05:51:27.205Z,94630.36
2018-02-23T05:54:30.471Z,94627.37
2018-02-23T05:57:35.670Z,94635.24
2018-02-23T06:00:38.955Z,94634.80
2018-02-23T06:03:42.266Z,94642.94
2018-02-23T06:06:45.539Z,94641.47
2018-02-23T06:09:48.822Z,94640.43
2018-02-23T06:12:52.098Z,94657.09
2018-02-23T06:16:01.680Z,94662.86
2018-02-23T06:19:05.655Z,94658.33
2018-02-23T06:22:09.844Z,94661.05
2018-02-23T06:25:13.187Z,94661.56
2018-02-23T06:28:16.467Z,94662.30
2018-02-23T06:31:20.575Z,94657.81
2018-02-23T06:34:24.079Z,94659.78
2018-02-23T06:37:28.261Z,94662.88
2018-02-23T06:40:31.907Z,94661.05
2018-02-23T06:43:36.756Z,94664.11
2018-02-23T06:46:40.373Z,94659.63
2018-02-23T06:49:44.698Z,94664.55
2018-02-23T06:52:47.996Z,94666.00
2018-02-23T06:55:51.288Z,94652.83
2018-02-23T06:58:54.628Z,94657.16
2018-02-23T07:01:57.915Z,94645.99
2018-02-23T07:05:01.209Z,94644.14
2018-02-23T07:08:04.495Z,94652.12
2018-02-23T07:11:07.791Z,94654.01
2018-02-23T07:14:11.062Z,94656.52
2018-02-23T07:17:15.197Z,94659.88
2018-02-23T07:20:19.334Z,94659.71
2018-02-23T07:23:22.667Z,94661.36
2018-02-23T07:26:27.497Z,94651.79
2018-02-23T07:29:30.779Z,94647.22
2018-02-23T07:32:34.143Z,94656.13
2018-02-23T07:35:38.341Z,94658.22
2018-02-23T07:38:42.464Z,94663.07
2018-02-23T07:41:46.550Z,94660.03
2018-02-23T07:44:49.830Z,94667.44
2018-02-23T07:47:53.390Z,94669.41
2018-02-23T07:50:57.450Z,94666.28
2018-02-23T07:54:00.728Z,94669.38
2018-02-23T07:57:05.185Z,94669.11
2018-02-23T08:00:10.121Z,94673.38
2018-02-23T08:03:13.442Z,94674.34
2018-02-23T08:06:17.518Z,94687.86
2018-02-23T08:09:20.906Z,94691.44
2018-02-23T08:12:24.176Z,94688.45
2018-02-23T08:15:28.288Z,94692.30
2018-02-23T08:18:32.337Z,94690.33
2018-02-23T08:21:35.660Z,94693.89
2018-02-23T08:24:40.944Z,94693.84
2018-02-23T08:27:45.009Z,94689.45
2018-02-23T08:30:48.930Z,94693.56
2018-02-23T08:33:52.249Z,94685.72
2018-02-23T08:36:56.375Z,94689.34
2018-02-23T08:40:00.423Z,94692.02
2018-02-23T08:43:03.707Z,94699.84
2018-02-23T08:46:06.996Z,94697.42
2018-02-23T08:49:11.874Z,94693.38
2018-02-23T08:52:15.164Z,94696.30
2018-02-23T08:55:18.466Z,94700.62
2018-02-23T08:58:21.771Z,94707.44
2018-02-23T09:01:25.309Z,94697.97
2018-02-23T09:04:28.614Z,94709.35
2018-02-23T09:07:37.336Z,94715.42
2018-02-23T09:10:42.623Z,94710.38
2018-02-23T09:13:46.105Z,94706.12
2018-02-23T09:16:49.662Z,94720.25
2018-02-23T09:19:53.026Z,94722.52
2018-02-23T09:22:56.337Z,94723.81
2018-02-23T09:25:59.633Z,94728.47
2018-02-23T09:29:02.921Z,94723.45
2018-02-23T09:35:36.039Z,94718.59
2018-02-23T09:38:39.326Z,94720.52
2018-02-23T09:41:44.318Z,94725.02
2018-02-23T09:44:47.622Z,94727.12
2018-02-23T09:47:50.897Z,94727.91
2018-02-23T09:51:11.425Z,94719.31
2018-02-23T09:54:15.493Z,94719.95
2018-02-23T09:57:18.916Z,94712.76
2018-02-23T10:00:22.453Z,94719.39
2018-02-23T10:03:25.744Z,94728.57
2018-02-23T10:06:33.881Z,94727.63
2018-02-23T10:09:37.935Z,94722.06
2018-02-23T10:12:41.309Z,94713.92
2018-02-23T10:15:44.583Z,94718.37
2018-02-23T10:18:48.656Z,94722.20
2018-02-23T10:21:51.920Z,94720.79
2018-02-23T10:24:55.749Z,94728.73
2018-02-23T10:27:59.014Z,94727.20
2018-02-23T10:31:03.066Z,94723.96
2018-02-23T10:34:06.358Z,94722.84
2018-02-23T10:37:09.633Z,94728.33
2018-02-23T10:40:12.945Z,94728.85
2018-02-23T10:43:16.253Z,94734.44
2018-02-23T10:46:19.537Z,94730.78
2018-02-23T10:49:22.822Z,94721.66
2018-02-23T10:52:26.862Z,94734.02
2018-02-23T10:55:30.147Z,94743.88
2018-02-23T10:58:53.310Z,94742.89
2018-02-23T11:02:10.374Z,94742.48
2018-02-23T11:05:14.815Z,94734.84
2018-02-23T11:08:18.106Z,94734.39
2018-02-23T11:11:21.395Z,94742.92
2018-02-23T11:14:25.069Z,94742.59
2018-02-23T11:17:28.334Z,94735.59
2018-02-23T11:20:32.401Z,94735.91
2018-02-23T11:23:35.833Z,94734.45
2018-02-23T11:26:40.004Z,94718.55
2018-02-23T11:29:43.297Z,94724.72
2018-02-23T11:32:46.570Z,94720.95
2018-02-23T11:35:50.352Z,94721.98
2018-02-23T11:38:54.413Z,94725.36
2018-02-23T11:41:57.730Z,94717.84
2018-02-23T11:45:01.010Z,94720.14
2018-02-23T11:48:04.548Z,94725.93
2018-02-23T11:51:07.917Z,94721.06
2018-02-23T11:54:11.211Z,94717.48
2018-02-23T11:57:14.622Z,94736.54
2018-02-23T12:00:19.557Z,94749.55
2018-02-23T12:03:22.838Z,94745.88
2018-02-23T12:06:26.143Z,94742.25
2018-02-23T12:09:30.553Z,94754.67
2018-02-23T12:12:33.878Z,94746.98
2018-02-23T12:15:37.291Z,94751.49
2018-02-23T12:18:40.753Z,94743.09
2018-02-23T12:21:44.067Z,94744.19
2018-02-23T12:24:47.381Z,94730.10
2018-02-23T12:27:51.580Z,94731.32
2018-02-23T12:30:54.871Z,94732.16
2018-02-23T12:33:58.429Z,94735.31
2018-02-23T12:37:01.719Z,94744.66
2018-02-23T12:40:23.608Z,94749.39
2018-02-23T12:43:29.842Z,94748.50
2018-02-23T12:46:33.886Z,94754.81
2018-02-23T12:49:37.169Z,94741.23
2018-02-23T12:52:41.222Z,94748.27
2018-02-23T12:55:44.510Z,94750.16
2018-02-23T12:58:47.826Z,94750.84
2018-02-23T13:01:51.587Z,94749.45
2018-02-23T13:04:55.628Z,94744.98
2018-02-23T13:07:58.915Z,94740.86
2018-02-23T13:11:02.216Z,94742.72
2018-02-23T13:14:05.518Z,94735.48
2018-02-23T13:17:08.825Z,94740.70
2018-02-23T13:20:12.097Z,94737.56
2018-02-23T13:23:15.787Z,94740.11
2018-02-23T13:26:19.145Z,94741.80
2018-02-23T13:29:22.578Z,94742.20
2018-02-23T13:32:26.653Z,94738.20
2018-02-23T13:35:29.991Z,94736.64
2018-02-23T13:38:33.307Z,94742.31
2018-02-23T13:41:41.310Z,94747.81
2018-02-23T13:44:45.358Z,94752.49
2018-02-23T13:47:48.677Z,94746.60
2018-02-23T13:50:53.051Z,94744.54
2018-02-23T13:54:02.477Z,94742.45
2018-02-23T13:57:06.525Z,94746.44
2018-02-23T14:00:09.909Z,94752.98
2018-02-23T14:03:13.239Z,94757.13
2018-02-23T14:06:16.557Z,94759.20
2018-02-23T14:09:20.022Z,94758.17
2018-02-23T14:12:24.370Z,94754.38
2018-02-23T14:15:27.667Z,94751.70
2018-02-23T14:18:31.010Z,94746.11
2018-02-23T14:21:34.298Z,94755.44
2018-02-23T14:24:37.571Z,94751.92
2018-02-23T14:27:40.855Z,94746.51
2018-02-23T14:30:44.144Z,94746.06
2018-02-23T14:33:47.426Z,94747.98
2018-02-23T14:36:50.713Z,94754.81
2018-02-23T14:39:54.238Z,94754.22
2018-02-23T14:42:57.518Z,94747.01
2018-02-23T14:46:00.798Z,94745.48
2018-02-23T14:49:19.026Z,94743.56
2018-02-23T14:52:22.338Z,94743.18
2018-02-23T14:55:26.378Z,94737.65
2018-02-23T14:58:29.912Z,94733.48
2018-02-23T15:01:33.224Z,94730.30
2018-02-23T15:04:36.577Z,94725.22
2018-02-23T15:07:40.293Z,94726.27
2018-02-23T15:10:43.595Z,94719.05
2018-02-23T15:13:46.977Z,94718.45
2018-02-23T15:16:50.273Z,94717.50
2018-02-23T15:19:53.631Z,94716.21
2018-02-23T15:22:56.945Z,94707.00
2018-02-23T15:26:00.330Z,94717.68
2018-02-23T15:29:04.394Z,94716.84
2018-02-23T15:32:23.226Z,94723.62
2018-02-23T15:35:27.289Z,94727.86
2018-02-23T15:38:30.741Z,94730.89
2018-02-23T15:41:34.829Z,94730.27
2018-02-23T15:44:38.158Z,94729.95
2018-02-23T15:47:42.986Z,94733.03
2018-02-23T15:50:51.874Z,94738.78
2018-02-23T15:53:56.235Z,94742.00
2018-02-23T15:57:00.348Z,94742.26
2018-02-23T16:00:03.867Z,94739.39
2018-02-23T16:03:08.000Z,94747.94
2018-02-23T16:06:11.277Z,94750.03
2018-02-23T16:09:16.096Z,94753.44
2018-02-23T16:12:19.378Z,94760.83
2018-02-23T16:15:22.691Z,94764.20
2018-02-23T16:18:27.496Z,94759.91
2018-02-23T16:21:30.781Z,94774.13
2018-02-23T16:24:34.117Z,94768.63
2018-02-23T16:27:37.394Z,94766.56
2018-02-23T16:30:40.686Z,94762.11
2018-02-23T16:33:43.974Z,94773.11
2018-02-23T16:36:47.257Z,94771.75
2018-02-23T16:39:50.843Z,94780.87
2018-02-23T16:42:54.893Z,94772.05
2018-02-23T16:45:58.569Z,94768.41
2018-02-23T16:49:02.268Z,94768.20
2018-02-23T16:52:05.964Z,94763.80
2018-02-23T16:55:09.656Z,94765.11
2018-02-23T16:58:14.222Z,94763.32
2018-02-23T17:01:17.849Z,94764.62
2018-02-23T17:04:21.502Z,94768.05
2018-02-23T17:07:25.842Z,94776.06
2018-02-23T17:10:29.538Z,94773.34
2018-02-23T17:16:39.822Z,94787.13
2018-02-23T17:19:43.430Z,94785.95
2018-02-23T17:22:47.486Z,94787.77
2018-02-23T17:25:50.774Z,94779.59
2018-02-23T17:28:54.912Z,94775.84
2018-02-23T17:31:59.532Z,94772.16
2018-02-23T17:35:02.811Z,94772.78
2018-02-23T17:38:06.720Z,94777.16
2018-02-23T17:41:10.201Z,94774.64
2018-02-23T17:44:13.733Z,94782.16
2018-02-23T17:47:17.319Z,94783.45
2018-02-23T17:50:21.079Z,94791.42
2018-02-23T17:53:24.387Z,94796.63
2018-02-23T17:56:27.697Z,94788.95
2018-02-23T17:59:31.072Z,94781.91
2018-02-23T18:02:34.416Z,94780.48
2018-02-23T18:05:38.774Z,94780.91
2018-02-23T18:08:42.066Z,94778.05
2018-02-23T18:11:45.463Z,94781.39
2018-02-23T18:14:48.777Z,94784.66
2018-02-23T18:17:52.974Z,94787.93
2018-02-23T18:20:56.645Z,94792.25
2018-02-23T18:24:00.381Z,94788.31
2018-02-23T18:27:03.786Z,94799.16
2018-02-23T18:30:07.089Z,94790.72
2018-02-23T18:33:10.466Z,94792.89
2018-02-23T18:36:14.498Z,94798.64
2018-02-23T18:39:17.828Z,94801.61
2018-02-23T18:42:21.125Z,94805.58
2018-02-23T18:45:24.392Z,94802.00
2018-02-23T18:48:27.794Z,94806.75
2018-02-23T18:51:31.110Z,94805.81
2018-02-23T18:54:34.413Z,94803.66
2018-02-23T18:57:37.685Z,94813.47
2018-02-23T19:00:40.966Z,94808.08
2018-02-23T19:03:45.046Z,94803.04
2018-02-23T19:06:48.397Z,94804.13
2018-02-23T19:09:51.694Z,94812.63
2018-02-23T19:12:55.002Z,94807.08
2018-02-23T19:15:58.290Z,94809.62
2018-02-23T19:19:03.469Z,94810.84
2018-02-23T19:22:20.987Z,94812.75
2018-02-23T19:25:51.644Z,94811.42
2018-02-23T19:29:09.115Z,94811.32
2018-02-23T19:32:16.749Z,94814.20
2018-02-23T19:35:22.840Z,94812.42
2018-02-23T19:38:28.957Z,94815.69
2018-02-23T19:41:36.428Z,94808.47
2018-02-23T19:44:41.107Z,94813.66
2018-02-23T19:47:44.563Z,94806.88
2018-02-23T19:50:48.641Z,94809.26
2018-02-23T19:53:51.931Z,94809.20
2018-02-23T19:56:55.254Z,94805.53
2018-02-23T19:59:58.532Z,94807.00
2018-02-23T20:03:01.823Z,94809.15
2018-02-23T20:06:05.189Z,94812.55
2018-02-23T20:09:09.274Z,94810.42
2018-02-23T20:12:12.707Z,94819.16
2018-02-23T20:15:16.774Z,94823.58
2018-02-23T20:18:20.127Z,94825.37
2018-02-23T20:21:23.452Z,94828.66
2018-02-23T20:24:26.763Z,94823.02
2018-02-23T20:27:30.040Z,94829.55
2018-02-23T20:30:35.013Z,94837.84
2018-02-23T20:33:38.293Z,94829.81
2018-02-23T20:36:42.062Z,94827.85
2018-02-23T20:39:46.086Z,94823.92
2018-02-23T20:42:49.377Z,94830.18
2018-02-23T20:45:52.674Z,94822.67
2018-02-23T20:48:55.979Z,94826.66
2018-02-23T20:51:59.271Z,94823.52
2018-02-23T20:55:03.337Z,94827.04
2018-02-23T20:58:06.619Z,94811.61
2018-02-23T21:01:10.047Z,94826.58
2018-02-23T21:04:14.933Z,94819.53
2018-02-23T21:07:18.234Z,94811.91
2018-02-23T21:10:21.568Z,94821.74
2018-02-23T21:13:24.833Z,94822.95
2018-02-23T21:16:28.129Z,94818.98
2018-02-23T21:19:31.425Z,94819.91
2018-02-23T21:22:36.011Z,94809.23
2018-02-23T21:25:39.339Z,94810.89
2018-02-23T21:28:42.753Z,94817.14
2018-02-23T21:31:46.054Z,94816.84
2018-02-23T21:34:49.630Z,94813.19
2018-02-23T21:37:53.675Z,94818.81
2018-02-23T21:40:56.966Z,94812.28
2018-02-23T21:44:00.293Z,94816.80
2018-02-23T21:47:03.607Z,94814.91
2018-02-23T21:50:07.781Z,94820.74
2018-02-23T21:53:11.833Z,94819.10
2018-02-23T21:56:15.864Z,94813.29
2018-02-23T21:59:19.983Z,94816.55
2018-02-23T22:02:23.424Z,94814.71
2018-02-23T22:05:26.690Z,94815.32
2018-02-23T22:08:30.964Z,94828.98
2018-02-23T22:11:34.242Z,94820.63
2018-02-23T22:14:37.837Z,94821.66
2018-02-23T22:17:41.123Z,94818.78
2018-02-23T22:20:45.170Z,94815.42
2018-02-23T22:23:48.553Z,94821.13
2018-02-23T22:26:51.842Z,94819.47
2018-02-23T22:29:55.134Z,94820.20
2018-02-23T22:32:59.183Z,94818.41
2018-02-23T22:36:02.466Z,94825.43
2018-02-23T22:39:05.866Z,94820.87
2018-02-23T22:42:09.142Z,94819.39
2018-02-23T22:45:13.185Z,94813.84
2018-02-23T22:48:16.474Z,94815.20
2018-02-23T22:51:19.779Z,94814.38
2018-02-23T22:54:23.053Z,94816.81
2018-02-23T22:57:27.103Z,94807.41
2018-02-23T23:00:30.402Z,94812.19
2018-02-23T23:03:33.690Z,94821.45
2018-02-23T23:06:36.962Z,94827.61
2018-02-23T23:09:41.018Z,94832.39
2018-02-23T23:12:44.294Z,94826.28
2018-02-23T23:15:47.657Z,94828.13
2018-02-23T23:18:51.697Z,94827.64
2018-02-23T23:21:54.985Z,94820.97
2018-02-23T23:24:59.117Z,94820.91
2018-02-23T23:28:02.422Z,94809.97
2018-02-23T23:31:05.705Z,94823.36
2018-02-23T23:34:09.005Z,94832.48
2018-02-23T23:37:12.287Z,94837.70
2018-02-23T23:40:16.425Z,94827.47
2018-02-23T23:43:19.722Z,94840.42
2018-02-23T23:46:22.990Z,94847.05
2018-02-23T23:49:27.728Z,94841.42
2018-02-23T23:52:31.767Z,94830.45
2018-02-23T23:55:35.078Z,94840.94
2018-02-23T23:58:38.360Z,94834.11
